sensor_id;sensor_type;location;lat;lon;timestamp;pressure;altitude;pressure_sealevel;temperature;humidity
18749;BME280;9503;53.560;10.246;2023-03-03T07:02:33;101705.81;;;0.21;100.00
18749;BME280;9503;53.560;10.246;2023-03-03T07:05:00;101717.84;;;0.64;100.00
18749;BME280;9503;53.560;10.246;2023-03-03T07:07:27;101720.25;;;0.71;100.00
18749;BME280;9503;53.560;10.246;2023-03-03T07:09:55;101723.56;;;0.79;100.00
18749;BME280;9503;53.560;10.246;2023-03-03T07:12:24;101729.72;;;0.65;100.00
18749;BME280;9503;53.560;10.246;2023-03-03T07:14:53;101749.00;;;0.65;100.00
18749;BME280;9503;53.560;10.246;2023-03-03T07:17:23;101736.38;;;0.65;100.00
18749;BME280;9503;53.560;10.246;2023-03-03T07:19:51;101738.75;;;0.88;100.00
18749;BME280;9503;53.560;10.246;2023-03-03T07:22:20;101736.41;;;0.89;100.00
18749;BME280;9503;53.560;10.246;2023-03-03T07:24:48;101728.94;;;0.82;100.00
18749;BME280;9503;53.560;10.246;2023-03-03T07:27:19;101736.78;;;1.09;100.00
18749;BME280;9503;53.560;10.246;2023-03-03T07:29:49;101743.31;;;1.07;100.00
18749;BME280;9503;53.560;10.246;2023-03-03T07:32:26;101730.03;;;1.26;100.00
18749;BME280;9503;53.560;10.246;2023-03-03T07:34:55;101742.09;;;1.37;100.00
18749;BME280;9503;53.560;10.246;2023-03-03T07:37:29;101751.38;;;1.12;100.00
18749;BME280;9503;53.560;10.246;2023-03-03T07:39:56;101757.28;;;1.04;100.00
18749;BME280;9503;53.560;10.246;2023-03-03T07:42:25;101748.59;;;0.93;100.00
18749;BME280;9503;53.560;10.246;2023-03-03T07:44:54;101747.53;;;0.91;100.00
18749;BME280;9503;53.560;10.246;2023-03-03T07:47:24;101745.28;;;0.86;100.00
18749;BME280;9503;53.560;10.246;2023-03-03T07:49:51;101742.34;;;0.90;100.00
18749;BME280;9503;53.560;10.246;2023-03-03T07:52:24;101743.28;;;0.99;100.00
18749;BME280;9503;53.560;10.246;2023-03-03T07:54:52;101741.53;;;1.06;100.00
18749;BME280;9503;53.560;10.246;2023-03-03T07:57:21;101747.88;;;1.27;100.00
18749;BME280;9503;53.560;10.246;2023-03-03T07:59:51;101738.03;;;1.22;100.00
18749;BME280;9503;53.560;10.246;2023-03-03T08:02:38;101740.41;;;1.20;100.00
18749;BME280;9503;53.560;10.246;2023-03-03T08:05:30;101745.50;;;1.29;100.00
18749;BME280;9503;53.560;10.246;2023-03-03T08:08:09;101738.41;;;1.33;100.00
18749;BME280;9503;53.560;10.246;2023-03-03T08:10:43;101746.94;;;1.69;100.00
18749;BME280;9503;53.560;10.246;2023-03-03T08:13:17;101744.66;;;1.46;100.00
18749;BME280;9503;53.560;10.246;2023-03-03T08:15:45;101740.16;;;1.26;100.00
18749;BME280;9503;53.560;10.246;2023-03-03T08:18:18;101746.03;;;1.51;100.00
18749;BME280;9503;53.560;10.246;2023-03-03T08:20:48;101752.06;;;1.86;100.00
18749;BME280;9503;53.560;10.246;2023-03-03T08:23:17;101749.88;;;2.06;100.00
18749;BME280;9503;53.560;10.246;2023-03-03T08:25:45;101755.03;;;1.90;100.00
18749;BME280;9503;53.560;10.246;2023-03-03T08:28:12;101754.59;;;1.94;100.00
18749;BME280;9503;53.560;10.246;2023-03-03T08:30:39;101749.25;;;2.09;100.00
18749;BME280;9503;53.560;10.246;2023-03-03T08:33:06;101746.25;;;1.96;100.00
18749;BME280;9503;53.560;10.246;2023-03-03T08:35:33;101756.09;;;1.84;100.00
18749;BME280;9503;53.560;10.246;2023-03-03T08:38:00;101754.75;;;1.87;100.00
18749;BME280;9503;53.560;10.246;2023-03-03T08:40:28;101753.09;;;1.79;100.00
18749;BME280;9503;53.560;10.246;2023-03-03T08:42:55;101750.16;;;2.01;100.00
18749;BME280;9503;53.560;10.246;2023-03-03T08:45:22;101744.19;;;2.00;100.00
18749;BME280;9503;53.560;10.246;2023-03-03T08:47:49;101749.72;;;2.39;100.00
18749;BME280;9503;53.560;10.246;2023-03-03T08:50:16;101757.00;;;2.45;100.00
18749;BME280;9503;53.560;10.246;2023-03-03T08:52:43;101752.56;;;2.51;100.00
18749;BME280;9503;53.560;10.246;2023-03-03T08:55:10;101766.09;;;2.26;100.00
18749;BME280;9503;53.560;10.246;2023-03-03T08:57:39;101771.28;;;2.27;100.00
18749;BME280;9503;53.560;10.246;2023-03-03T09:00:07;101766.69;;;2.32;100.00
18749;BME280;9503;53.560;10.246;2023-03-03T09:02:34;101767.44;;;2.22;100.00
18749;BME280;9503;53.560;10.246;2023-03-03T09:05:02;101770.84;;;2.22;100.00
18749;BME280;9503;53.560;10.246;2023-03-03T09:07:29;101775.44;;;1.92;100.00
18749;BME280;9503;53.560;10.246;2023-03-03T09:09:56;101771.59;;;2.21;100.00
18749;BME280;9503;53.560;10.246;2023-03-03T09:12:28;101769.94;;;2.57;100.00
18749;BME280;9503;53.560;10.246;2023-03-03T09:14:57;101783.94;;;2.53;100.00
18749;BME280;9503;53.560;10.246;2023-03-03T09:17:29;101792.56;;;2.55;100.00
18749;BME280;9503;53.560;10.246;2023-03-03T09:20:00;101791.19;;;3.02;100.00
18749;BME280;9503;53.560;10.246;2023-03-03T09:22:30;101795.75;;;3.15;100.00
18749;BME280;9503;53.560;10.246;2023-03-03T09:25:01;101793.59;;;2.92;100.00
18749;BME280;9503;53.560;10.246;2023-03-03T09:27:29;101796.81;;;3.08;100.00
18749;BME280;9503;53.560;10.246;2023-03-03T09:30:00;101807.75;;;2.90;100.00
18749;BME280;9503;53.560;10.246;2023-03-03T09:32:33;101807.13;;;3.01;100.00
18749;BME280;9503;53.560;10.246;2023-03-03T09:35:32;101806.72;;;3.41;100.00
18749;BME280;9503;53.560;10.246;2023-03-03T09:38:09;101810.38;;;3.62;100.00
18749;BME280;9503;53.560;10.246;2023-03-03T09:40:50;101810.75;;;3.39;100.00
18749;BME280;9503;53.560;10.246;2023-03-03T09:43:30;101823.88;;;3.35;100.00
18749;BME280;9503;53.560;10.246;2023-03-03T09:46:03;101821.09;;;3.59;100.00
18749;BME280;9503;53.560;10.246;2023-03-03T09:48:43;101834.19;;;4.28;100.00
18749;BME280;9503;53.560;10.246;2023-03-03T09:51:28;101839.22;;;4.09;100.00
18749;BME280;9503;53.560;10.246;2023-03-03T09:54:11;101831.84;;;4.39;100.00
18749;BME280;9503;53.560;10.246;2023-03-03T09:56:46;101838.81;;;4.04;100.00
18749;BME280;9503;53.560;10.246;2023-03-03T09:59:23;101835.06;;;3.73;100.00
18749;BME280;9503;53.560;10.246;2023-03-03T10:04:53;101841.03;;;3.29;100.00
18749;BME280;9503;53.560;10.246;2023-03-03T10:07:35;101840.16;;;3.28;100.00
18749;BME280;9503;53.560;10.246;2023-03-03T10:10:16;101842.53;;;3.27;100.00
18749;BME280;9503;53.560;10.246;2023-03-03T10:12:57;101846.00;;;3.10;100.00
18749;BME280;9503;53.560;10.246;2023-03-03T10:15:35;101839.41;;;3.21;100.00
18749;BME280;9503;53.560;10.246;2023-03-03T10:18:12;101838.84;;;3.23;100.00
18749;BME280;9503;53.560;10.246;2023-03-03T10:20:48;101832.13;;;3.24;100.00
18749;BME280;9503;53.560;10.246;2023-03-03T10:23:20;101836.09;;;3.30;100.00
18749;BME280;9503;53.560;10.246;2023-03-03T10:25:54;101837.28;;;3.43;100.00
18749;BME280;9503;53.560;10.246;2023-03-03T10:31:29;101826.88;;;3.40;100.00
18749;BME280;9503;53.560;10.246;2023-03-03T10:34:06;101829.16;;;3.19;100.00
18749;BME280;9503;53.560;10.246;2023-03-03T10:36:47;101827.53;;;3.56;100.00
18749;BME280;9503;53.560;10.246;2023-03-03T10:39:39;101823.53;;;3.49;100.00
18749;BME280;9503;53.560;10.246;2023-03-03T10:42:31;101815.75;;;3.12;100.00
18749;BME280;9503;53.560;10.246;2023-03-03T10:45:13;101815.72;;;3.65;100.00
18749;BME280;9503;53.560;10.246;2023-03-03T10:48:00;101820.78;;;3.65;100.00
18749;BME280;9503;53.560;10.246;2023-03-03T10:50:43;101821.44;;;3.54;100.00
18749;BME280;9503;53.560;10.246;2023-03-03T10:53:20;101821.91;;;3.50;100.00
18749;BME280;9503;53.560;10.246;2023-03-03T10:55:56;101828.56;;;3.58;100.00
18749;BME280;9503;53.560;10.246;2023-03-03T10:58:39;101825.91;;;3.56;100.00
18749;BME280;9503;53.560;10.246;2023-03-03T11:01:19;101820.06;;;3.94;100.00
18749;BME280;9503;53.560;10.246;2023-03-03T11:04:10;101827.97;;;4.15;100.00
18749;BME280;9503;53.560;10.246;2023-03-03T11:06:46;101820.81;;;4.20;100.00
18749;BME280;9503;53.560;10.246;2023-03-03T11:09:33;101811.59;;;3.84;100.00
18749;BME280;9503;53.560;10.246;2023-03-03T11:12:15;101810.22;;;3.88;100.00
18749;BME280;9503;53.560;10.246;2023-03-03T11:14:49;101804.97;;;3.95;100.00
18749;BME280;9503;53.560;10.246;2023-03-03T11:17:22;101802.66;;;4.26;100.00
18749;BME280;9503;53.560;10.246;2023-03-03T11:20:00;101805.63;;;4.30;100.00
18749;BME280;9503;53.560;10.246;2023-03-03T11:22:38;101798.09;;;4.22;100.00
18749;BME280;9503;53.560;10.246;2023-03-03T11:25:17;101798.44;;;5.02;100.00
18749;BME280;9503;53.560;10.246;2023-03-03T11:27:59;101801.47;;;4.97;100.00
18749;BME280;9503;53.560;10.246;2023-03-03T11:30:39;101805.25;;;5.71;100.00
18749;BME280;9503;53.560;10.246;2023-03-03T11:33:14;101807.56;;;5.28;100.00
18749;BME280;9503;53.560;10.246;2023-03-03T11:35:48;101802.63;;;5.30;100.00
18749;BME280;9503;53.560;10.246;2023-03-03T11:38:26;101799.50;;;5.14;100.00
18749;BME280;9503;53.560;10.246;2023-03-03T11:41:00;101797.38;;;5.18;100.00
18749;BME280;9503;53.560;10.246;2023-03-03T11:43:32;101798.22;;;5.48;100.00
18749;BME280;9503;53.560;10.246;2023-03-03T11:46:04;101791.22;;;5.45;100.00
18749;BME280;9503;53.560;10.246;2023-03-03T11:48:40;101793.22;;;6.09;100.00
18749;BME280;9503;53.560;10.246;2023-03-03T11:51:13;101795.59;;;5.77;100.00
18749;BME280;9503;53.560;10.246;2023-03-03T11:53:55;101791.22;;;5.45;100.00
18749;BME280;9503;53.560;10.246;2023-03-03T11:56:27;101788.34;;;5.61;100.00
18749;BME280;9503;53.560;10.246;2023-03-03T11:59:04;101784.66;;;5.78;100.00
18749;BME280;9503;53.560;10.246;2023-03-03T12:01:36;101775.84;;;5.54;100.00
18749;BME280;9503;53.560;10.246;2023-03-03T12:04:10;101778.06;;;5.90;100.00
18749;BME280;9503;53.560;10.246;2023-03-03T12:06:51;101771.41;;;5.72;100.00
18749;BME280;9503;53.560;10.246;2023-03-03T12:09:31;101775.00;;;5.74;100.00
18749;BME280;9503;53.560;10.246;2023-03-03T12:12:05;101769.34;;;5.37;100.00
18749;BME280;9503;53.560;10.246;2023-03-03T12:14:48;101767.28;;;5.33;100.00
18749;BME280;9503;53.560;10.246;2023-03-03T12:17:40;101762.72;;;5.39;100.00
18749;BME280;9503;53.560;10.246;2023-03-03T12:20:17;101763.13;;;5.54;100.00
18749;BME280;9503;53.560;10.246;2023-03-03T12:22:53;101761.88;;;5.79;100.00
18749;BME280;9503;53.560;10.246;2023-03-03T12:25:33;101761.69;;;5.97;100.00
18749;BME280;9503;53.560;10.246;2023-03-03T12:28:09;101745.84;;;6.31;100.00
18749;BME280;9503;53.560;10.246;2023-03-03T12:33:59;101749.84;;;6.60;100.00
18749;BME280;9503;53.560;10.246;2023-03-03T12:36:40;101741.88;;;6.55;100.00
18749;BME280;9503;53.560;10.246;2023-03-03T12:39:16;101740.03;;;6.64;100.00
18749;BME280;9503;53.560;10.246;2023-03-03T12:41:51;101737.78;;;6.89;100.00
18749;BME280;9503;53.560;10.246;2023-03-03T12:44:25;101734.28;;;6.67;100.00
18749;BME280;9503;53.560;10.246;2023-03-03T12:46:59;101739.94;;;7.39;100.00
18749;BME280;9503;53.560;10.246;2023-03-03T12:49:37;101719.50;;;7.05;100.00
18749;BME280;9503;53.560;10.246;2023-03-03T12:52:14;101715.69;;;7.22;100.00
18749;BME280;9503;53.560;10.246;2023-03-03T12:54:56;101705.47;;;7.44;100.00
18749;BME280;9503;53.560;10.246;2023-03-03T12:57:34;101698.94;;;7.81;100.00
18749;BME280;9503;53.560;10.246;2023-03-03T13:00:27;101695.03;;;7.74;100.00
18749;BME280;9503;53.560;10.246;2023-03-03T13:03:00;101692.38;;;7.85;100.00
18749;BME280;9503;53.560;10.246;2023-03-03T13:05:39;101684.75;;;8.20;100.00
18749;BME280;9503;53.560;10.246;2023-03-03T13:08:28;101684.38;;;7.80;100.00
18749;BME280;9503;53.560;10.246;2023-03-03T13:11:03;101682.44;;;8.11;100.00
18749;BME280;9503;53.560;10.246;2023-03-03T13:13:37;101681.75;;;8.25;100.00
18749;BME280;9503;53.560;10.246;2023-03-03T13:16:10;101679.84;;;7.88;100.00
18749;BME280;9503;53.560;10.246;2023-03-03T13:18:47;101685.47;;;7.38;100.00
18749;BME280;9503;53.560;10.246;2023-03-03T13:21:21;101680.50;;;7.85;100.00
18749;BME280;9503;53.560;10.246;2023-03-03T13:26:27;101685.09;;;8.01;100.00
18749;BME280;9503;53.560;10.246;2023-03-03T13:29:03;101677.50;;;7.79;100.00
18749;BME280;9503;53.560;10.246;2023-03-03T13:31:38;101682.34;;;7.31;100.00
18749;BME280;9503;53.560;10.246;2023-03-03T13:34:11;101684.50;;;7.48;100.00
18749;BME280;9503;53.560;10.246;2023-03-03T13:36:45;101669.50;;;7.74;100.00
18749;BME280;9503;53.560;10.246;2023-03-03T13:39:21;101667.47;;;7.59;100.00
18749;BME280;9503;53.560;10.246;2023-03-03T13:41:50;101668.19;;;7.91;100.00
18749;BME280;9503;53.560;10.246;2023-03-03T13:44:24;101663.63;;;8.22;100.00
18749;BME280;9503;53.560;10.246;2023-03-03T13:47:02;101658.34;;;8.43;100.00
18749;BME280;9503;53.560;10.246;2023-03-03T13:49:49;101651.91;;;8.24;100.00
18749;BME280;9503;53.560;10.246;2023-03-03T13:52:21;101647.19;;;7.84;100.00
18749;BME280;9503;53.560;10.246;2023-03-03T13:54:55;101641.38;;;7.51;100.00
18749;BME280;9503;53.560;10.246;2023-03-03T13:57:42;101646.88;;;7.79;100.00
18749;BME280;9503;53.560;10.246;2023-03-03T14:00:20;101638.88;;;8.33;100.00
18749;BME280;9503;53.560;10.246;2023-03-03T14:03:02;101640.63;;;8.69;100.00
18749;BME280;9503;53.560;10.246;2023-03-03T14:05:36;101629.88;;;8.50;100.00
18749;BME280;9503;53.560;10.246;2023-03-03T14:08:09;101630.56;;;8.24;100.00
18749;BME280;9503;53.560;10.246;2023-03-03T14:10:43;101634.13;;;8.02;100.00
18749;BME280;9503;53.560;10.246;2023-03-03T14:13:18;101625.75;;;8.52;100.00
18749;BME280;9503;53.560;10.246;2023-03-03T14:15:54;101616.78;;;8.34;100.00
18749;BME280;9503;53.560;10.246;2023-03-03T14:18:27;101609.78;;;8.19;100.00
18749;BME280;9503;53.560;10.246;2023-03-03T14:20:59;101612.47;;;7.97;100.00
18749;BME280;9503;53.560;10.246;2023-03-03T14:23:31;101614.34;;;8.00;100.00
18749;BME280;9503;53.560;10.246;2023-03-03T14:26:07;101614.56;;;7.68;100.00
18749;BME280;9503;53.560;10.246;2023-03-03T14:28:38;101609.47;;;7.80;100.00
18749;BME280;9503;53.560;10.246;2023-03-03T14:31:14;101607.34;;;7.74;100.00
18749;BME280;9503;53.560;10.246;2023-03-03T14:33:45;101605.50;;;7.38;100.00
18749;BME280;9503;53.560;10.246;2023-03-03T14:36:26;101594.00;;;7.43;100.00
18749;BME280;9503;53.560;10.246;2023-03-03T14:38:53;101600.56;;;7.17;100.00
18749;BME280;9503;53.560;10.246;2023-03-03T14:41:22;101588.81;;;7.19;100.00
18749;BME280;9503;53.560;10.246;2023-03-03T14:44:00;101594.88;;;7.10;100.00
18749;BME280;9503;53.560;10.246;2023-03-03T14:46:38;101588.66;;;7.40;100.00
18749;BME280;9503;53.560;10.246;2023-03-03T14:49:13;101578.44;;;7.28;100.00
18749;BME280;9503;53.560;10.246;2023-03-03T14:51:43;101576.31;;;7.34;100.00
18749;BME280;9503;53.560;10.246;2023-03-03T14:54:21;101572.47;;;7.39;100.00
18749;BME280;9503;53.560;10.246;2023-03-03T14:56:59;101568.56;;;7.21;100.00
18749;BME280;9503;53.560;10.246;2023-03-03T14:59:26;101568.34;;;7.41;100.00
18749;BME280;9503;53.560;10.246;2023-03-03T15:02:18;101574.16;;;7.51;100.00
18749;BME280;9503;53.560;10.246;2023-03-03T15:04:47;101558.06;;;7.63;100.00
18749;BME280;9503;53.560;10.246;2023-03-03T15:07:26;101566.81;;;7.55;100.00
18749;BME280;9503;53.560;10.246;2023-03-03T15:09:57;101570.03;;;7.53;100.00
18749;BME280;9503;53.560;10.246;2023-03-03T15:12:25;101564.38;;;7.45;100.00
18749;BME280;9503;53.560;10.246;2023-03-03T15:15:03;101558.03;;;7.40;100.00
18749;BME280;9503;53.560;10.246;2023-03-03T15:17:35;101561.94;;;7.35;100.00
18749;BME280;9503;53.560;10.246;2023-03-03T15:20:29;101555.88;;;7.11;100.00
18749;BME280;9503;53.560;10.246;2023-03-03T15:23:08;101548.84;;;7.54;100.00
18749;BME280;9503;53.560;10.246;2023-03-03T15:25:42;101550.13;;;7.25;100.00
18749;BME280;9503;53.560;10.246;2023-03-03T15:28:26;101551.22;;;7.05;100.00
18749;BME280;9503;53.560;10.246;2023-03-03T15:31:01;101541.91;;;7.06;100.00
18749;BME280;9503;53.560;10.246;2023-03-03T15:33:34;101541.81;;;7.16;100.00
18749;BME280;9503;53.560;10.246;2023-03-03T15:36:09;101542.66;;;7.50;100.00
18749;BME280;9503;53.560;10.246;2023-03-03T15:38:50;101543.09;;;7.68;100.00
18749;BME280;9503;53.560;10.246;2023-03-03T15:41:24;101535.94;;;7.17;100.00
18749;BME280;9503;53.560;10.246;2023-03-03T15:44:05;101536.75;;;7.28;100.00
18749;BME280;9503;53.560;10.246;2023-03-03T15:46:50;101535.91;;;7.05;100.00
18749;BME280;9503;53.560;10.246;2023-03-03T15:49:38;101527.22;;;6.91;100.00
18749;BME280;9503;53.560;10.246;2023-03-03T15:52:18;101518.44;;;7.22;100.00
18749;BME280;9503;53.560;10.246;2023-03-03T15:54:58;101524.31;;;7.20;100.00
18749;BME280;9503;53.560;10.246;2023-03-03T15:57:38;101522.25;;;6.93;100.00
18749;BME280;9503;53.560;10.246;2023-03-03T16:00:24;101527.97;;;6.79;100.00
18749;BME280;9503;53.560;10.246;2023-03-03T16:02:59;101522.66;;;6.87;100.00
18749;BME280;9503;53.560;10.246;2023-03-03T16:05:31;101514.72;;;6.95;100.00
18749;BME280;9503;53.560;10.246;2023-03-03T16:08:02;101514.28;;;6.67;100.00
18749;BME280;9503;53.560;10.246;2023-03-03T16:10:37;101523.56;;;6.88;100.00
18749;BME280;9503;53.560;10.246;2023-03-03T16:13:20;101530.50;;;6.79;100.00
18749;BME280;9503;53.560;10.246;2023-03-03T16:15:55;101522.03;;;6.68;100.00
18749;BME280;9503;53.560;10.246;2023-03-03T16:18:34;101533.34;;;6.72;100.00
18749;BME280;9503;53.560;10.246;2023-03-03T16:21:16;101530.72;;;6.82;100.00
18749;BME280;9503;53.560;10.246;2023-03-03T16:23:46;101536.44;;;6.68;100.00
18749;BME280;9503;53.560;10.246;2023-03-03T16:26:31;101527.78;;;6.65;100.00
18749;BME280;9503;53.560;10.246;2023-03-03T16:29:10;101540.94;;;6.60;100.00
18749;BME280;9503;53.560;10.246;2023-03-03T16:31:44;101537.28;;;6.56;100.00
18749;BME280;9503;53.560;10.246;2023-03-03T16:34:16;101536.72;;;6.38;100.00
18749;BME280;9503;53.560;10.246;2023-03-03T16:36:57;101526.97;;;6.33;100.00
18749;BME280;9503;53.560;10.246;2023-03-03T16:39:36;101532.78;;;6.20;100.00
18749;BME280;9503;53.560;10.246;2023-03-03T16:42:14;101540.78;;;6.25;100.00
18749;BME280;9503;53.560;10.246;2023-03-03T16:44:48;101535.50;;;6.01;100.00
18749;BME280;9503;53.560;10.246;2023-03-03T16:47:30;101535.50;;;6.12;100.00
18749;BME280;9503;53.560;10.246;2023-03-03T16:50:09;101530.13;;;6.08;100.00
18749;BME280;9503;53.560;10.246;2023-03-03T16:52:44;101533.25;;;5.84;100.00
18749;BME280;9503;53.560;10.246;2023-03-03T16:55:16;101533.03;;;5.81;100.00
18749;BME280;9503;53.560;10.246;2023-03-03T16:57:55;101535.13;;;6.07;100.00
18749;BME280;9503;53.560;10.246;2023-03-03T17:00:27;101533.84;;;6.02;100.00
18749;BME280;9503;53.560;10.246;2023-03-03T17:03:02;101532.75;;;5.98;100.00
18749;BME280;9503;53.560;10.246;2023-03-03T17:05:41;101529.59;;;5.91;100.00
18749;BME280;9503;53.560;10.246;2023-03-03T17:08:42;101531.66;;;5.74;100.00
18749;BME280;9503;53.560;10.246;2023-03-03T17:11:19;101520.72;;;5.65;100.00
18749;BME280;9503;53.560;10.246;2023-03-03T17:14:02;101540.75;;;5.93;100.00
18749;BME280;9503;53.560;10.246;2023-03-03T17:16:37;101539.91;;;5.82;100.00
18749;BME280;9503;53.560;10.246;2023-03-03T17:19:17;101538.56;;;5.87;100.00
18749;BME280;9503;53.560;10.246;2023-03-03T17:21:57;101536.31;;;5.90;100.00
18749;BME280;9503;53.560;10.246;2023-03-03T17:24:35;101533.22;;;6.04;100.00
18749;BME280;9503;53.560;10.246;2023-03-03T17:27:13;101538.44;;;6.06;100.00
18749;BME280;9503;53.560;10.246;2023-03-03T17:29:58;101536.94;;;5.98;100.00
18749;BME280;9503;53.560;10.246;2023-03-03T17:32:36;101538.59;;;5.97;100.00
18749;BME280;9503;53.560;10.246;2023-03-03T17:35:29;101541.91;;;5.96;100.00
18749;BME280;9503;53.560;10.246;2023-03-03T17:38:05;101532.16;;;5.80;100.00
18749;BME280;9503;53.560;10.246;2023-03-03T17:40:57;101535.97;;;5.65;100.00
18749;BME280;9503;53.560;10.246;2023-03-03T17:43:31;101539.56;;;5.67;100.00
18749;BME280;9503;53.560;10.246;2023-03-03T17:46:03;101533.81;;;5.70;100.00
18749;BME280;9503;53.560;10.246;2023-03-03T17:49:04;101536.91;;;5.55;100.00
18749;BME280;9503;53.560;10.246;2023-03-03T17:51:58;101534.97;;;5.73;100.00
18749;BME280;9503;53.560;10.246;2023-03-03T17:54:53;101535.69;;;5.82;100.00
18749;BME280;9503;53.560;10.246;2023-03-03T17:57:40;101528.72;;;5.70;100.00
